Time;durP1;ratioP1;P1;durP2;ratioP2;P2;SDS_P1;SDS_P2;PMS_P1;PMS_P2;Temp;Humidity;BMP_temperature;BMP_pressure;BME280_temperature;BME280_humidity;BME280_pressure;Samples;Min_cycle;Max_cycle;Signal;HPM_P1;HPM_P2
2023/10/15 00:00:54;;;;;;;17.92;5.57;;;;;;;10.58;95.04;99922.56;5038755;28;20761;-62
2023/10/15 00:03:27;;;;;;;14.77;6.22;;;;;;;10.84;95.40;99923.75;5025924;28;20377;-61
2023/10/15 00:05:57;;;;;;;14.43;5.43;;;;;;;11.06;95.50;99929.31;5040582;28;20414;-63
2023/10/15 00:08:27;;;;;;;13.30;5.63;;;;;;;11.14;94.02;99923.00;5033004;28;20465;-62
2023/10/15 00:10:58;;;;;;;23.40;5.53;;;;;;;11.07;92.63;99925.81;5043720;28;20093;-61
2023/10/15 00:13:29;;;;;;;15.70;5.65;;;;;;;11.02;91.82;99924.16;5033861;28;20393;-61
2023/10/15 00:15:59;;;;;;;15.07;5.40;;;;;;;11.01;92.32;99919.84;5037207;28;20044;-62
2023/10/15 00:18:31;;;;;;;14.65;5.60;;;;;;;10.94;94.20;99883.41;5033392;28;22434;-62
2023/10/15 00:21:11;;;;;;;14.27;5.63;;;;;;;11.37;93.97;99916.34;5043044;28;20076;-61
2023/10/15 00:23:42;;;;;;;15.07;4.82;;;;;;;11.42;92.95;99917.94;5020494;28;20057;-63
2023/10/15 00:26:14;;;;;;;12.20;5.38;;;;;;;11.53;92.00;99909.84;5013932;28;20053;-63
2023/10/15 00:28:45;;;;;;;14.60;5.65;;;;;;;11.39;90.89;99902.34;5023966;28;20075;-62
2023/10/15 00:31:17;;;;;;;12.60;5.15;;;;;;;11.51;90.92;99910.78;5014096;28;20069;-62
2023/10/15 00:33:50;;;;;;;12.23;5.15;;;;;;;11.72;91.63;99898.88;5023550;28;20095;-63
2023/10/15 00:36:20;;;;;;;13.45;5.57;;;;;;;11.88;90.47;99900.19;5013457;28;20067;-62
2023/10/15 00:38:51;;;;;;;16.40;6.20;;;;;;;12.11;89.76;99896.09;5023382;28;20122;-64
2023/10/15 00:41:22;;;;;;;12.45;5.40;;;;;;;12.15;88.07;99887.25;5011860;28;20147;-64
2023/10/15 00:43:54;;;;;;;16.15;6.65;;;;;;;12.26;88.37;99890.44;5004306;28;20389;-63
2023/10/15 00:46:32;;;;;;;16.88;5.45;;;;;;;12.37;87.25;99882.25;4994316;28;20567;-63
2023/10/15 00:49:09;;;;;;;13.13;5.85;;;;;;;12.44;85.79;99879.38;5013493;28;20048;-61
2023/10/15 00:51:41;;;;;;;12.77;6.25;;;;;;;12.49;84.45;99882.72;5021321;28;20050;-62
2023/10/15 00:54:16;;;;;;;15.45;5.97;;;;;;;12.63;84.36;99873.56;5036597;28;20059;-64
2023/10/15 00:56:50;;;;;;;16.58;6.40;;;;;;;12.75;84.54;99883.69;5022704;28;20048;-63
2023/10/15 00:59:34;;;;;;;15.82;7.25;;;;;;;12.84;83.86;99878.16;5012933;28;20091;-62
2023/10/15 01:02:05;;;;;;;21.08;7.65;;;;;;;12.93;84.03;99871.78;5023266;28;20045;-61
2023/10/15 01:04:41;;;;;;;20.48;9.60;;;;;;;12.93;83.92;99841.16;5012565;28;20045;-62
2023/10/15 01:07:20;;;;;;;19.48;9.32;;;;;;;13.05;83.55;99854.75;5015530;28;20069;-61
2023/10/15 01:09:50;;;;;;;;;;;;;;;13.20;82.73;99869.97;5023527;28;20056;-60
2023/10/15 01:12:24;;;;;;;14.00;6.88;;;;;;;13.25;81.37;99868.06;5013266;28;20012;-60
2023/10/15 01:14:55;;;;;;;18.92;7.15;;;;;;;13.35;81.74;99859.03;5018258;28;20429;-61
2023/10/15 01:17:36;;;;;;;17.13;6.82;;;;;;;13.46;81.45;99855.19;5011805;28;20041;-61
2023/10/15 01:20:09;;;;;;;17.60;5.78;;;;;;;13.59;79.41;99856.44;5023402;28;20055;-61
2023/10/15 01:22:40;;;;;;;18.05;6.82;;;;;;;13.67;80.04;99853.56;5013557;28;20616;-59
2023/10/15 01:25:24;;;;;;;16.17;7.20;;;;;;;13.58;78.60;99849.50;5020258;28;20072;-61
2023/10/15 01:28:00;;;;;;;16.92;7.97;;;;;;;13.59;79.68;99841.53;5023665;28;20049;-60
2023/10/15 01:30:35;;;;;;;16.85;8.07;;;;;;;13.42;78.49;99846.53;5013649;28;20572;-61
2023/10/15 01:33:10;;;;;;;21.08;8.40;;;;;;;13.48;79.89;99845.44;5017954;28;20521;-60
2023/10/15 01:35:44;;;;;;;21.30;8.32;;;;;;;13.62;80.01;99837.97;5009425;28;20049;-61
2023/10/15 01:38:20;;;;;;;20.40;9.15;;;;;;;13.70;79.91;99838.53;5011491;28;20128;-60
2023/10/15 01:40:56;;;;;;;22.25;7.75;;;;;;;13.90;80.17;99839.56;5023812;28;20079;-61
2023/10/15 01:43:27;;;;;;;16.53;8.00;;;;;;;13.91;79.31;99838.69;5016128;28;20068;-61
2023/10/15 01:45:58;;;;;;;20.77;8.63;;;;;;;13.90;78.84;99835.19;5025436;28;20298;-62
2023/10/15 01:48:31;;;;;;;21.85;8.00;;;;;;;13.90;78.73;99840.44;5008587;28;20364;-61
2023/10/15 01:51:06;;;;;;;17.63;7.73;;;;;;;13.93;79.75;99832.47;5024265;28;20063;-62
2023/10/15 01:53:37;;;;;;;21.07;7.93;;;;;;;14.02;79.82;99823.38;5032677;28;20271;-61
2023/10/15 01:56:16;;;;;;;17.90;8.97;;;;;;;14.03;80.07;99819.84;5044461;28;20282;-61
2023/10/15 01:58:47;;;;;;;23.52;8.90;;;;;;;14.10;80.48;99816.03;5023707;28;20763;-61
2023/10/15 02:04:17;;;;;;;22.17;10.90;;;;;;;14.27;79.90;99812.78;5055886;27;20356;-60
2023/10/15 02:06:48;;;;;;;26.80;12.40;;;;;;;14.26;79.97;99810.22;5060960;28;20283;-60
2023/10/15 02:09:21;;;;;;;27.73;14.00;;;;;;;14.28;79.87;99809.25;5057250;28;20282;-59
2023/10/15 02:11:54;;;;;;;29.53;13.20;;;;;;;14.32;80.57;99804.72;5066553;28;20624;-62
2023/10/15 02:14:27;;;;;;;16.93;8.50;;;;;;;14.31;80.27;99800.41;5056096;28;20800;-60
2023/10/15 02:16:59;;;;;;;20.83;9.50;;;;;;;14.36;80.57;99806.31;5048756;28;20761;-62
2023/10/15 02:19:34;;;;;;;22.27;10.37;;;;;;;14.41;80.68;99799.09;5031369;28;20343;-62
2023/10/15 02:22:07;;;;;;;21.30;9.60;;;;;;;14.39;80.87;99790.41;5041098;28;20287;-61
2023/10/15 02:24:37;;;;;;;31.07;10.53;;;;;;;14.51;80.44;99800.44;5033547;28;20290;-62
2023/10/15 02:27:09;;;;;;;27.60;10.50;;;;;;;14.59;80.30;99793.13;5047559;28;20301;-61
2023/10/15 02:29:41;;;;;;;26.33;10.37;;;;;;;14.73;80.51;99795.22;5070231;28;20345;-61
2023/10/15 02:32:21;;;;;;;22.77;10.17;;;;;;;14.90;80.02;99797.13;5056774;28;20278;-62
2023/10/15 02:34:54;;;;;;;31.53;10.20;;;;;;;15.01;79.22;99781.75;5065778;28;20282;-62
2023/10/15 02:37:26;;;;;;;24.80;9.17;;;;;;;15.08;79.56;99763.97;5041009;28;20283;-62
2023/10/15 02:39:59;;;;;;;20.63;8.67;;;;;;;15.32;79.10;99783.06;5046692;28;20279;-64
2023/10/15 02:42:34;;;;;;;24.60;9.50;;;;;;;15.37;78.40;99781.09;5064461;27;20289;-62
2023/10/15 02:45:06;;;;;;;25.23;8.07;;;;;;;15.47;77.91;99766.59;5077427;28;20659;-62
2023/10/15 02:47:42;;;;;;;20.00;8.87;;;;;;;15.48;77.83;99773.59;5057670;28;20288;-61
2023/10/15 02:50:18;;;;;;;23.77;8.73;;;;;;;15.43;77.15;99765.03;5050788;28;20377;-59
2023/10/15 02:52:48;;;;;;;32.97;8.90;;;;;;;15.32;77.88;99767.28;5060021;28;20283;-61
2023/10/15 02:55:26;;;;;;;31.50;8.37;;;;;;;15.21;78.39;99754.59;5068494;28;20282;-60
2023/10/15 02:58:02;;;;;;;30.05;9.00;;;;;;;15.26;79.18;99757.03;5060091;28;20429;-60
2023/10/15 03:00:33;;;;;;;27.13;8.57;;;;;;;15.23;79.68;99751.91;5058909;28;20860;-60
2023/10/15 03:03:07;;;;;;;25.23;9.80;;;;;;;15.23;79.68;99751.91;5079533;27;20347;-62
2023/10/15 03:05:42;;;;;;;17.93;7.50;;;;;;;15.22;79.31;99752.81;5069822;28;20308;-60
2023/10/15 03:08:20;;;;;;;19.63;6.60;;;;;;;15.20;79.52;99752.03;5069674;28;20274;-60
2023/10/15 03:11:12;;;;;;;24.33;7.30;;;;;;;15.21;79.89;99748.50;5080005;28;20376;-61
2023/10/15 03:13:49;;;;;;;22.33;7.07;;;;;;;15.29;80.24;99741.09;5066429;28;21038;-60
2023/10/15 03:16:21;;;;;;;21.23;6.57;;;;;;;15.15;79.34;99696.09;5056506;28;20289;-62
2023/10/15 03:18:52;;;;;;;19.97;7.00;;;;;;;15.46;79.04;99724.56;5066318;28;20286;-61
2023/10/15 03:21:29;;;;;;;20.90;8.03;;;;;;;15.63;79.42;99734.34;5055576;28;20352;-61
2023/10/15 03:24:04;;;;;;;21.47;6.57;;;;;;;15.76;78.82;99721.50;5066207;28;20616;-60
2023/10/15 03:26:35;;;;;;;19.67;7.27;;;;;;;15.76;79.18;99730.22;5056055;28;20353;-60
2023/10/15 03:29:09;;;;;;;21.50;6.90;;;;;;;15.66;78.58;99707.84;5066044;28;20282;-63
2023/10/15 03:31:45;;;;;;;29.17;7.33;;;;;;;15.64;78.69;99720.22;5055363;28;20386;-62
2023/10/15 03:34:21;;;;;;;21.23;7.63;;;;;;;15.52;79.25;99709.34;5055967;28;20286;-62
2023/10/15 03:36:57;;;;;;;28.83;7.93;;;;;;;15.52;79.60;99701.44;5065652;28;20290;-62
2023/10/15 03:39:53;;;;;;;16.77;6.00;;;;;;;15.63;79.84;99702.75;5046391;28;20301;-60
2023/10/15 03:42:19;;;;;;;18.93;6.93;;;;;;;15.83;79.65;99694.78;5038056;28;20283;-60
2023/10/15 03:44:49;;;;;;;19.97;6.20;;;;;;;16.00;78.94;99695.75;5045714;28;20275;-60
2023/10/15 03:47:22;;;;;;;22.50;6.60;;;;;;;16.18;78.56;99695.72;5022271;28;20294;-61
2023/10/15 03:49:55;;;;;;;20.40;7.23;;;;;;;15.72;77.12;99618.03;5026011;28;20275;-60
2023/10/15 03:52:27;;;;;;;25.87;7.27;;;;;;;16.10;77.16;99691.75;5019051;28;20288;-60
2023/10/15 03:54:58;;;;;;;21.47;7.30;;;;;;;16.02;77.41;99686.84;5046654;28;20286;-60
2023/10/15 03:57:34;;;;;;;19.10;6.00;;;;;;;16.08;77.45;99688.34;5035890;28;20287;-60
2023/10/15 04:00:14;;;;;;;23.37;7.17;;;;;;;16.14;77.02;99694.16;5032959;28;20322;-61
2023/10/15 04:03:06;;;;;;;21.23;6.50;;;;;;;16.18;76.81;99689.59;5034493;28;20321;-60
2023/10/15 04:05:54;;;;;;;23.30;7.27;;;;;;;16.17;75.34;99687.88;5045943;28;20294;-61
2023/10/15 04:08:26;;;;;;;18.00;6.37;;;;;;;16.14;76.17;99698.59;5041191;28;20287;-61
2023/10/15 04:10:57;;;;;;;21.63;6.67;;;;;;;16.25;76.46;99691.03;5044449;28;20283;-60
2023/10/15 04:13:27;;;;;;;16.90;6.10;;;;;;;16.31;75.84;99690.72;5040329;28;20726;-62
2023/10/15 04:15:58;;;;;;;21.17;6.33;;;;;;;16.25;75.33;99685.75;5047143;28;20286;-62
2023/10/15 04:18:29;;;;;;;23.77;7.83;;;;;;;16.14;74.87;99686.25;5040786;28;20380;-61
2023/10/15 04:21:00;;;;;;;27.50;6.73;;;;;;;16.10;75.01;99681.19;5050681;28;20328;-62
2023/10/15 04:23:33;;;;;;;19.07;6.47;;;;;;;16.10;75.37;99682.06;5040892;28;20309;-62
2023/10/15 04:26:11;;;;;;;17.57;6.00;;;;;;;16.03;74.75;99691.19;5050133;28;20294;-59
2023/10/15 04:28:42;;;;;;;15.98;6.07;;;;;;;15.88;74.67;99682.25;5020451;28;20819;-60
2023/10/15 04:31:20;;;;;;;19.63;6.80;;;;;;;15.72;74.29;99686.50;5020886;28;20503;-60
2023/10/15 04:33:52;;;;;;;19.27;6.10;;;;;;;15.65;75.86;99695.59;5044754;28;20353;-61
2023/10/15 04:36:23;;;;;;;16.40;6.57;;;;;;;15.69;76.57;99687.50;5040089;28;20282;-61
2023/10/15 04:39:08;;;;;;;23.40;6.70;;;;;;;15.72;76.33;99686.50;5050632;28;20480;-62
2023/10/15 04:41:39;;;;;;;20.20;6.57;;;;;;;15.69;76.37;99682.25;5024867;28;20287;-61
2023/10/15 04:44:20;;;;;;;16.53;5.97;;;;;;;15.70;76.92;99672.56;5033665;28;20382;-60
2023/10/15 04:46:53;;;;;;;16.53;6.90;;;;;;;15.73;78.12;99661.91;5020022;28;20379;-61
2023/10/15 04:49:24;;;;;;;16.63;6.93;;;;;;;15.77;79.08;99663.44;5018023;28;20565;-59
2023/10/15 04:51:54;;;;;;;16.53;7.80;;;;;;;15.70;79.49;99656.75;5030160;28;20757;-61
2023/10/15 04:54:26;;;;;;;15.73;7.00;;;;;;;15.67;80.39;99655.09;5024909;28;20293;-63
2023/10/15 04:56:56;;;;;;;20.80;7.87;;;;;;;15.62;80.96;99649.19;5030115;28;20378;-62
2023/10/15 04:59:27;;;;;;;18.10;8.17;;;;;;;15.62;81.15;99658.88;5024110;28;20842;-61
2023/10/15 05:01:57;;;;;;;21.50;8.40;;;;;;;15.54;81.65;99652.19;5045363;28;20293;-62
2023/10/15 05:04:28;;;;;;;16.10;7.97;;;;;;;15.59;82.18;99648.50;5024116;28;20386;-62
2023/10/15 05:06:58;;;;;;;20.77;8.43;;;;;;;15.55;82.55;99653.06;5030151;28;20372;-62
2023/10/15 05:09:31;;;;;;;17.80;8.27;;;;;;;15.48;82.25;99657.75;5020252;28;20303;-61
2023/10/15 05:12:06;;;;;;;17.20;8.60;;;;;;;15.45;82.61;99649.13;5038505;28;20904;-61
2023/10/15 05:14:37;;;;;;;16.83;8.10;;;;;;;15.46;82.95;99653.47;5019218;28;20378;-61
2023/10/15 05:17:07;;;;;;;16.50;8.87;;;;;;;15.46;83.29;99649.06;5033235;28;20291;-60
2023/10/15 05:19:38;;;;;;;16.10;7.97;;;;;;;15.41;83.74;99655.47;5023507;28;20342;-61
2023/10/15 05:22:08;;;;;;;20.17;8.53;;;;;;;15.34;83.81;99660.16;5037551;28;20291;-61
2023/10/15 05:24:43;;;;;;;23.20;8.07;;;;;;;15.24;84.35;99659.72;5031914;28;20320;-60
2023/10/15 05:27:13;;;;;;;18.53;8.13;;;;;;;15.26;84.86;99652.59;5039200;28;20317;-61
2023/10/15 05:29:43;;;;;;;18.57;8.80;;;;;;;15.24;84.85;99658.84;5050201;28;20290;-60
2023/10/15 05:32:14;;;;;;;15.77;8.10;;;;;;;15.20;84.47;99652.00;5039206;28;20294;-61
2023/10/15 05:34:44;;;;;;;18.43;8.50;;;;;;;15.13;84.74;99646.19;5049633;28;20282;-61
2023/10/15 05:37:16;;;;;;;14.80;7.53;;;;;;;15.03;84.66;99651.00;5039381;28;20842;-62
2023/10/15 05:39:48;;;;;;;24.57;8.73;;;;;;;14.99;85.13;99649.44;5049893;28;20286;-62
2023/10/15 05:42:18;;;;;;;19.10;8.83;;;;;;;14.97;85.70;99635.47;5039403;28;20381;-61
2023/10/15 05:44:49;;;;;;;20.20;7.53;;;;;;;14.94;85.78;99640.88;5049007;28;20297;-61
2023/10/15 05:47:19;;;;;;;15.10;8.40;;;;;;;14.90;86.11;99639.31;5039200;28;20315;-61
2023/10/15 05:49:50;;;;;;;23.03;8.90;;;;;;;14.55;85.80;99597.03;5049458;28;20310;-60
2023/10/15 05:52:21;;;;;;;17.70;7.60;;;;;;;14.65;86.04;99635.13;5038793;28;20629;-61
2023/10/15 05:54:53;;;;;;;16.83;7.50;;;;;;;14.56;86.25;99656.56;5049652;28;20278;-59
2023/10/15 05:57:24;;;;;;;18.43;7.50;;;;;;;14.45;86.74;99642.97;5039490;28;20287;-61
2023/10/15 05:59:55;;;;;;;20.50;7.80;;;;;;;14.38;87.13;99645.00;5049777;28;20282;-61
2023/10/15 06:02:25;;;;;;;21.83;8.80;;;;;;;14.29;87.46;99637.50;5039466;28;20380;-58
2023/10/15 06:04:56;;;;;;;21.13;8.47;;;;;;;14.26;88.09;99652.56;5049283;28;21212;-61
2023/10/15 06:07:26;;;;;;;16.67;8.03;;;;;;;14.21;88.18;99645.72;5038755;28;20292;-61
2023/10/15 06:09:58;;;;;;;19.03;8.13;;;;;;;14.17;88.63;99641.47;5049048;28;20341;-61
2023/10/15 06:12:29;;;;;;;30.47;8.63;;;;;;;14.14;88.84;99644.25;5039785;28;20325;-62
2023/10/15 06:15:00;;;;;;;20.97;8.00;;;;;;;14.13;89.14;99642.56;5049927;28;20381;-61
2023/10/15 06:17:30;;;;;;;20.87;7.63;;;;;;;14.12;89.12;99639.97;5039165;28;20813;-61
2023/10/15 06:20:12;;;;;;;17.23;7.80;;;;;;;14.12;89.27;99630.31;5048967;28;20282;-61
2023/10/15 06:22:43;;;;;;;18.63;7.93;;;;;;;13.92;89.31;99598.75;5031103;28;20286;-60
2023/10/15 06:25:16;;;;;;;25.00;6.93;;;;;;;14.11;89.37;99639.13;5039805;28;20377;-61
2023/10/15 06:27:47;;;;;;;21.97;7.83;;;;;;;14.03;89.45;99646.47;5049157;28;20625;-61
2023/10/15 06:30:18;;;;;;;18.63;7.50;;;;;;;13.95;89.88;99638.03;5039715;28;20378;-61
2023/10/15 06:32:53;;;;;;;18.37;8.00;;;;;;;13.93;90.22;99645.13;5043150;28;20294;-61
2023/10/15 06:35:25;;;;;;;32.40;8.13;;;;;;;13.29;90.37;99544.38;5038785;28;21084;-60
2023/10/15 06:37:57;;;;;;;20.63;7.43;;;;;;;13.81;90.16;99636.81;5048833;28;20383;-60
2023/10/15 06:40:30;;;;;;;20.07;8.23;;;;;;;13.81;89.68;99647.31;5039173;28;21487;-60
2023/10/15 06:43:01;;;;;;;18.37;7.23;;;;;;;13.72;89.59;99642.41;5048521;28;20283;-60
2023/10/15 06:45:33;;;;;;;19.63;7.80;;;;;;;13.68;89.89;99640.84;5039179;28;21178;-61
2023/10/15 06:48:04;;;;;;;18.47;7.20;;;;;;;13.65;90.37;99643.56;5049447;28;20301;-61
2023/10/15 06:50:35;;;;;;;17.20;6.90;;;;;;;13.65;90.54;99646.19;5023365;28;20287;-60
2023/10/15 06:53:06;;;;;;;16.10;6.77;;;;;;;13.60;90.62;99642.88;5034640;28;20285;-60
2023/10/15 06:55:38;;;;;;;19.00;7.00;;;;;;;13.52;91.00;99644.97;5034826;28;20750;-60
2023/10/15 06:58:10;;;;;;;20.90;7.30;;;;;;;13.48;91.25;99643.34;5052952;28;20298;-60
2023/10/15 07:00:40;;;;;;;21.43;7.30;;;;;;;13.46;91.73;99650.47;5029019;28;20274;-60
2023/10/15 07:03:11;;;;;;;18.07;7.20;;;;;;;13.45;92.13;99627.75;5032065;28;20297;-61
2023/10/15 07:05:42;;;;;;;20.67;8.03;;;;;;;13.45;92.05;99604.13;5036069;28;20287;-60
2023/10/15 07:08:13;;;;;;;19.87;8.77;;;;;;;13.48;92.03;99617.13;5032140;28;20290;-61
2023/10/15 07:10:45;;;;;;;24.47;10.63;;;;;;;13.45;92.31;99602.34;5041298;28;20760;-62
2023/10/15 07:13:17;;;;;;;22.87;11.47;;;;;;;13.51;92.24;99607.38;5027677;28;20374;-61
2023/10/15 07:15:47;;;;;;;20.10;7.73;;;;;;;13.49;92.43;99613.59;5032205;28;20765;-61
2023/10/15 07:18:17;;;;;;;50.60;13.93;;;;;;;13.45;92.91;99612.00;5030888;28;20297;-61
2023/10/15 07:20:48;;;;;;;51.17;13.83;;;;;;;13.46;93.27;99613.72;5052181;28;20367;-61
2023/10/15 07:23:19;;;;;;;188.20;38.40;;;;;;;13.34;93.61;99610.63;5041783;28;20287;-61
2023/10/15 07:25:51;;;;;;;42.53;13.20;;;;;;;13.32;94.04;99622.94;5051747;28;20291;-60
2023/10/15 07:28:22;;;;;;;27.07;10.60;;;;;;;13.20;94.40;99617.28;5041628;28;21141;-60
2023/10/15 07:30:52;;;;;;;24.98;10.82;;;;;;;13.17;95.11;99623.50;5051575;28;20377;-61
2023/10/15 07:33:23;;;;;;;22.83;10.60;;;;;;;13.14;95.71;99615.75;5042004;28;20135;-60
2023/10/15 07:35:54;;;;;;;29.13;10.80;;;;;;;13.12;96.09;99625.44;5052111;28;20207;-61
2023/10/15 07:38:24;;;;;;;24.63;9.82;;;;;;;13.11;96.39;99621.13;5041730;28;20048;-61
2023/10/15 07:40:56;;;;;;;24.20;10.18;;;;;;;13.08;96.75;99623.84;5051520;28;20380;-61
2023/10/15 07:43:30;;;;;;;23.25;10.68;;;;;;;13.06;97.34;99620.44;5041348;28;20045;-61
2023/10/15 07:46:01;;;;;;;24.40;10.10;;;;;;;13.02;97.45;99624.06;5052051;28;20048;-61
2023/10/15 07:48:31;;;;;;;24.95;10.30;;;;;;;13.00;97.70;99620.66;5041268;28;20347;-61
2023/10/15 07:51:02;;;;;;;28.10;11.33;;;;;;;12.98;98.14;99622.47;5052124;28;20051;-61
2023/10/15 07:53:33;;;;;;;36.45;14.80;;;;;;;12.92;98.45;99624.41;5040801;28;20292;-61
2023/10/15 07:56:08;;;;;;;50.88;19.30;;;;;;;12.88;98.95;99622.81;5051262;28;20580;-61
2023/10/15 07:58:38;;;;;;;44.03;15.43;;;;;;;12.86;99.44;99622.00;5026112;28;20117;-60
2023/10/15 08:01:09;;;;;;;37.28;16.70;;;;;;;12.80;99.91;99614.34;5037947;28;20698;-61
2023/10/15 08:03:41;;;;;;;38.25;16.33;;;;;;;12.79;100.00;99617.88;5033442;28;20047;-62
2023/10/15 08:06:12;;;;;;;36.28;12.88;;;;;;;12.80;100.00;99619.59;5042319;28;20048;-61
2023/10/15 08:08:45;;;;;;;27.98;12.77;;;;;;;12.76;100.00;99612.78;5051491;28;20063;-60
2023/10/15 08:11:17;;;;;;;26.85;11.23;;;;;;;12.75;100.00;99616.28;5041296;28;20056;-61
2023/10/15 08:13:48;;;;;;;29.25;10.30;;;;;;;12.71;100.00;99612.06;5051408;28;20064;-61
2023/10/15 08:16:19;;;;;;;21.95;9.68;;;;;;;12.71;100.00;99617.31;5041274;28;20097;-60
2023/10/15 08:18:50;;;;;;;18.05;9.57;;;;;;;12.71;100.00;99619.94;5051234;28;20048;-60
2023/10/15 08:21:21;;;;;;;20.70;9.13;;;;;;;12.69;100.00;99622.59;5041956;28;20059;-60
2023/10/15 08:23:53;;;;;;;20.73;9.15;;;;;;;12.67;100.00;99624.41;5035126;28;20060;-61
2023/10/15 08:26:25;;;;;;;17.75;9.32;;;;;;;12.68;100.00;99625.25;5039556;28;20049;-61
2023/10/15 08:28:55;;;;;;;27.23;9.40;;;;;;;12.63;100.00;99622.84;5051156;28;20536;-60
2023/10/15 08:31:26;;;;;;;25.63;9.70;;;;;;;12.60;100.00;99627.31;5040624;28;20083;-61
2023/10/15 08:33:57;;;;;;;24.00;9.35;;;;;;;12.56;100.00;99630.97;5051208;28;20060;-61
2023/10/15 08:36:27;;;;;;;20.20;9.75;;;;;;;12.55;100.00;99639.72;5040840;28;20057;-62
2023/10/15 08:38:58;;;;;;;24.20;10.23;;;;;;;12.55;100.00;99644.97;5051732;28;20496;-61
2023/10/15 08:41:33;;;;;;;24.00;10.10;;;;;;;12.24;100.00;99598.84;5041542;28;20533;-61
2023/10/15 08:44:05;;;;;;;22.40;10.50;;;;;;;12.56;100.00;99646.69;5051292;28;20523;-64
2023/10/15 08:46:38;;;;;;;23.73;10.25;;;;;;;12.57;100.00;99653.63;5040083;28;20143;-61
2023/10/15 08:49:11;;;;;;;23.75;10.38;;;;;;;12.57;100.00;99648.38;5051073;28;20052;-62
2023/10/15 08:51:43;;;;;;;29.02;12.05;;;;;;;12.52;100.00;99657.25;5027978;28;20468;-60
2023/10/15 08:54:17;;;;;;;33.33;11.55;;;;;;;12.44;100.00;99638.31;5028679;28;20044;-63
2023/10/15 08:56:50;;;;;;;26.38;12.30;;;;;;;12.54;100.00;99648.50;5037026;28;20090;-61
2023/10/15 08:59:22;;;;;;;28.80;13.15;;;;;;;12.54;100.00;99648.50;5037885;28;20267;-62
2023/10/15 09:01:55;;;;;;;27.90;12.90;;;;;;;12.51;100.00;99647.69;5038689;28;20110;-61
2023/10/15 09:04:27;;;;;;;25.75;12.90;;;;;;;12.49;100.00;99646.88;5024744;28;20874;-62
2023/10/15 09:07:01;;;;;;;25.00;12.65;;;;;;;12.42;100.00;99634.03;5044691;28;20566;-61
2023/10/15 09:09:32;;;;;;;22.10;11.40;;;;;;;12.47;100.00;99651.31;5037883;28;20057;-62
2023/10/15 09:12:06;;;;;;;27.50;11.88;;;;;;;12.47;100.00;99659.19;5044158;28;20063;-61
2023/10/15 09:14:40;;;;;;;29.10;12.60;;;;;;;11.86;100.00;99548.59;5022956;28;20052;-61
2023/10/15 09:17:14;;;;;;;22.17;11.07;;;;;;;12.50;100.00;99653.84;5037425;28;20052;-62
2023/10/15 09:19:46;;;;;;;27.50;11.80;;;;;;;12.43;100.00;99639.25;5038082;28;20067;-61
2023/10/15 09:22:17;;;;;;;32.08;12.63;;;;;;;12.46;100.00;99640.91;5032557;28;20049;-60
2023/10/15 09:24:48;;;;;;;24.33;12.25;;;;;;;12.51;100.00;99652.09;5035694;28;20059;-61
2023/10/15 09:27:21;;;;;;;26.83;12.57;;;;;;;12.51;100.00;99649.47;5024971;28;20048;-61
2023/10/15 09:30:10;;;;;;;21.85;12.20;;;;;;;12.33;100.00;99614.28;5040929;28;20750;-61
2023/10/15 09:32:41;;;;;;;22.63;11.52;;;;;;;12.51;100.00;99647.69;5021012;28;20054;-61
2023/10/15 09:35:13;;;;;;;24.08;11.30;;;;;;;12.49;100.00;99641.63;5032708;28;20048;-61
2023/10/15 09:37:44;;;;;;;21.83;11.43;;;;;;;12.49;100.00;99641.63;5049371;28;20048;-61
2023/10/15 09:40:19;;;;;;;28.27;11.13;;;;;;;12.52;100.00;99640.69;5039270;28;20138;-61
2023/10/15 09:42:53;;;;;;;21.55;10.93;;;;;;;12.25;100.00;99590.06;5049816;28;20062;-61
2023/10/15 09:45:24;;;;;;;28.75;12.07;;;;;;;12.45;100.00;99634.78;5039763;28;20118;-61
2023/10/15 09:47:57;;;;;;;27.35;11.27;;;;;;;12.39;100.00;99629.75;5035236;28;20052;-61
2023/10/15 09:50:31;;;;;;;25.70;11.48;;;;;;;12.35;100.00;99637.78;5023572;28;20565;-61
2023/10/15 09:53:09;;;;;;;24.42;11.95;;;;;;;12.33;100.00;99630.00;5045782;28;20041;-62
2023/10/15 09:55:41;;;;;;;28.73;11.90;;;;;;;12.29;100.00;99633.59;5032018;28;20125;-62
2023/10/15 09:58:15;;;;;;;22.38;12.35;;;;;;;12.22;100.00;99637.34;5040937;28;20052;-62
2023/10/15 10:01:08;;;;;;;32.00;12.23;;;;;;;11.87;100.00;99593.06;5046624;28;20139;-62
2023/10/15 10:04:05;;;;;;;30.98;14.15;;;;;;;11.99;100.00;99620.59;5023460;28;20052;-62
2023/10/15 10:07:12;;;;;;;30.38;13.63;;;;;;;11.86;100.00;99624.50;5022515;28;20056;-63
2023/10/15 10:10:09;;;;;;;30.45;13.52;;;;;;;11.58;100.00;99583.50;5007845;28;20044;-63
2023/10/15 10:13:02;;;;;;;34.72;13.52;;;;;;;11.83;100.00;99624.56;5022831;28;20059;-62
2023/10/15 10:15:42;;;;;;;35.67;14.02;;;;;;;11.82;100.00;99633.34;5039428;28;20135;-62
2023/10/15 10:18:15;;;;;;;32.25;13.48;;;;;;;11.80;100.00;99635.16;5040240;28;20111;-63
2023/10/15 10:20:48;;;;;;;32.13;13.52;;;;;;;11.75;100.00;99632.66;5049393;28;20138;-62
2023/10/15 10:23:20;;;;;;;26.52;13.38;;;;;;;11.72;100.00;99632.78;5039164;28;20053;-62
2023/10/15 10:26:12;;;;;;;28.02;12.95;;;;;;;11.73;100.00;99644.09;5051798;28;20044;-63
2023/10/15 10:28:44;;;;;;;32.70;14.35;;;;;;;11.68;100.00;99640.75;5042304;28;20060;-62
2023/10/15 10:31:18;;;;;;;31.63;13.15;;;;;;;11.65;100.00;99637.34;5042594;28;20151;-62
2023/10/15 10:33:55;;;;;;;25.20;13.50;;;;;;;11.63;100.00;99639.16;5051982;28;20048;-63
2023/10/15 10:36:27;;;;;;;27.52;12.98;;;;;;;11.56;100.00;99626.31;5042468;28;20044;-62
2023/10/15 10:39:13;;;;;;;26.55;12.85;;;;;;;11.51;100.00;99618.59;5053692;28;20079;-62
2023/10/15 10:41:48;;;;;;;26.75;12.57;;;;;;;11.56;100.00;99637.63;5042196;28;20139;-62
2023/10/15 10:44:40;;;;;;;21.08;11.10;;;;;;;11.54;100.00;99628.97;5042704;28;20131;-63
2023/10/15 10:47:24;;;;;;;27.27;11.48;;;;;;;11.45;100.00;99629.25;5047802;28;20060;-61
2023/10/15 10:50:00;;;;;;;21.70;11.20;;;;;;;11.45;100.00;99624.00;5051778;28;20058;-62
2023/10/15 10:52:34;;;;;;;23.42;12.20;;;;;;;11.42;100.00;99616.25;5039697;28;20073;-62
2023/10/15 10:55:32;;;;;;;23.33;10.77;;;;;;;11.40;100.00;99616.28;5032830;28;20143;-62
2023/10/15 10:58:09;;;;;;;20.20;10.60;;;;;;;11.35;100.00;99612.97;5047561;28;20052;-62
2023/10/15 11:00:41;;;;;;;22.52;10.82;;;;;;;11.30;100.00;99593.94;5025978;28;20630;-61
2023/10/15 11:03:14;;;;;;;25.40;11.13;;;;;;;11.32;100.00;99596.50;5045486;28;20055;-62
2023/10/15 11:05:47;;;;;;;21.95;10.90;;;;;;;11.27;100.00;99594.03;5051011;28;20052;-62
2023/10/15 11:08:21;;;;;;;21.70;10.15;;;;;;;11.25;100.00;99594.97;5041372;28;20052;-62
2023/10/15 11:10:53;;;;;;;17.88;9.35;;;;;;;11.26;100.00;99594.06;5051896;28;20059;-62
2023/10/15 11:13:24;;;;;;;21.40;10.05;;;;;;;11.23;100.00;99593.28;5041903;28;20121;-62
2023/10/15 11:15:55;;;;;;;17.50;9.75;;;;;;;11.18;100.00;99600.41;5051820;28;20040;-62
2023/10/15 11:18:29;;;;;;;23.52;10.00;;;;;;;11.08;100.00;99590.25;5042320;28;20070;-62
2023/10/15 11:21:00;;;;;;;21.30;9.07;;;;;;;11.08;100.00;99598.94;5052347;28;20052;-63
2023/10/15 11:23:31;;;;;;;20.25;10.05;;;;;;;11.04;100.00;99592.09;5042258;28;20071;-62
2023/10/15 11:26:02;;;;;;;22.48;10.10;;;;;;;11.00;100.00;99590.47;5052191;28;20117;-62
2023/10/15 11:28:34;;;;;;;23.23;11.10;;;;;;;10.96;100.00;99604.53;5041277;28;20442;-62
2023/10/15 11:31:05;;;;;;;24.10;11.07;;;;;;;10.94;100.00;99601.13;5052120;28;20048;-63
2023/10/15 11:33:39;;;;;;;21.70;10.40;;;;;;;10.92;100.00;99584.63;5032070;28;20048;-62
2023/10/15 11:36:10;;;;;;;22.50;10.15;;;;;;;10.96;100.00;99594.09;5051735;28;20720;-62
2023/10/15 11:38:41;;;;;;;27.17;10.10;;;;;;;10.95;100.00;99587.13;5034682;28;20070;-62
2023/10/15 11:41:12;;;;;;;20.40;11.50;;;;;;;10.97;100.00;99586.19;5043822;28;20044;-63
2023/10/15 11:43:43;;;;;;;20.10;10.30;;;;;;;10.92;100.00;99585.47;5051375;28;20055;-63
2023/10/15 11:46:16;;;;;;;19.80;10.45;;;;;;;10.89;100.00;99582.09;5041179;28;20072;-63
2023/10/15 11:48:49;;;;;;;23.55;10.50;;;;;;;10.91;100.00;99580.28;5050967;28;20060;-63
2023/10/15 11:51:22;;;;;;;21.55;11.25;;;;;;;10.90;100.00;99573.34;5041932;28;20049;-63